Time;durP1;ratioP1;P1;durP2;ratioP2;P2;SDS_P1;SDS_P2;PMS_P1;PMS_P2;Temp;Humidity;BMP_temperature;BMP_pressure;BME280_temperature;BME280_humidity;BME280_pressure;Samples;Min_cycle;Max_cycle;Signal;HPM_P1;HPM_P2
2023/09/21 00:01:06;;;;;;;2.95;1.38;;;;;;;24.14;58.66;100481.34;5071477;28;20043;-76
2023/09/21 00:04:01;;;;;;;8.65;1.73;;;;;;;24.18;58.50;100473.78;5074804;28;20047;-76
2023/09/21 00:06:55;;;;;;;4.18;1.77;;;;;;;24.19;58.08;100473.38;5073029;28;20048;-76
2023/09/21 00:09:50;;;;;;;5.50;1.73;;;;;;;24.19;58.46;100470.59;5075625;28;20051;-77
2023/09/21 00:12:44;;;;;;;6.40;1.80;;;;;;;24.16;58.38;100462.28;5069644;28;20059;-76
2023/09/21 00:15:37;;;;;;;6.95;1.60;;;;;;;24.18;57.96;100465.44;5065363;28;20051;-75
2023/09/21 00:18:34;;;;;;;6.88;2.13;;;;;;;24.20;57.82;100463.84;5070764;28;20068;-76
2023/09/21 00:21:29;;;;;;;5.40;1.65;;;;;;;24.16;57.56;100451.16;5072042;28;20044;-75
2023/09/21 00:24:23;;;;;;;9.05;1.65;;;;;;;23.98;58.37;100448.56;5070641;28;20047;-76
2023/09/21 00:27:17;;;;;;;7.35;2.58;;;;;;;24.12;58.15;100458.75;5073520;28;20055;-75
2023/09/21 00:30:12;;;;;;;13.20;2.78;;;;;;;24.17;58.00;100456.34;5071160;28;20044;-76
2023/09/21 00:33:07;;;;;;;5.85;1.92;;;;;;;24.20;57.79;100457.50;5069438;28;20416;-76
2023/09/21 00:36:11;;;;;;;6.57;2.65;;;;;;;23.98;58.49;100450.56;5069927;28;20056;-76
2023/09/21 00:39:04;;;;;;;;;;;;;;;23.85;58.48;100453.88;5076504;28;20056;-75
2023/09/21 00:41:58;;;;;;;5.15;1.52;;;;;;;23.91;58.99;100440.31;5074350;28;19912;-76
2023/09/21 00:44:53;;;;;;;6.88;1.90;;;;;;;23.93;58.74;100449.00;5073525;28;20047;-77
2023/09/21 00:47:56;;;;;;;6.85;2.03;;;;;;;24.08;58.56;100452.44;5074476;28;20043;-77
2023/09/21 00:50:53;;;;;;;7.82;1.65;;;;;;;24.12;58.46;100447.66;5074609;28;20063;-75
2023/09/21 00:53:45;;;;;;;3.90;1.70;;;;;;;24.16;58.46;100438.06;5072813;28;20040;-76
2023/09/21 00:56:39;;;;;;;3.63;1.88;;;;;;;24.11;58.43;100424.63;5073265;28;20044;-75
2023/09/21 00:59:36;;;;;;;7.35;2.00;;;;;;;24.14;58.02;100436.88;5073292;28;20118;-75
2023/09/21 01:02:30;;;;;;;4.28;1.80;;;;;;;24.09;58.30;100432.56;5063178;28;20059;-75
2023/09/21 01:05:25;;;;;;;4.00;1.95;;;;;;;24.09;58.25;100429.78;5072338;28;20047;-76
2023/09/21 01:08:21;;;;;;;4.43;2.03;;;;;;;24.14;58.22;100437.69;5072835;28;20039;-75
2023/09/21 01:11:18;;;;;;;4.47;1.52;;;;;;;24.14;58.34;100429.34;5071743;28;20055;-76
2023/09/21 01:14:12;;;;;;;10.38;2.42;;;;;;;24.10;58.28;100436.16;5073354;28;20047;-77
2023/09/21 01:17:04;;;;;;;9.32;2.13;;;;;;;24.02;58.65;100429.91;5070024;28;20048;-76
2023/09/21 01:19:59;;;;;;;7.10;1.63;;;;;;;24.11;58.42;100432.97;5065539;28;20439;-75
2023/09/21 01:22:58;;;;;;;3.92;2.15;;;;;;;24.13;58.33;100432.53;5079983;28;20416;-75
2023/09/21 01:25:53;;;;;;;6.65;1.77;;;;;;;24.13;57.99;100419.44;5072857;28;20047;-75
2023/09/21 01:28:47;;;;;;;4.57;1.70;;;;;;;24.12;58.09;100415.09;5053802;28;20528;-76
2023/09/21 01:31:42;;;;;;;5.30;2.03;;;;;;;24.08;57.67;100419.09;5076501;28;20111;-76
2023/09/21 01:34:34;;;;;;;5.90;2.42;;;;;;;24.03;58.21;100414.00;5079083;28;20055;-76
2023/09/21 01:37:29;;;;;;;5.15;2.20;;;;;;;24.00;58.07;100409.28;5074683;28;20044;-76
2023/09/21 01:40:19;;;;;;;8.15;2.33;;;;;;;23.74;58.07;100413.50;5072212;28;20055;-76
2023/09/21 01:43:20;;;;;;;6.72;1.90;;;;;;;23.76;59.03;100400.81;5057580;28;20417;-76
2023/09/21 01:46:17;;;;;;;6.47;1.50;;;;;;;23.89;58.84;100401.06;5075935;28;20055;-76
2023/09/21 01:49:13;;;;;;;2.60;1.30;;;;;;;23.93;58.33;100398.22;5073717;28;20055;-76
2023/09/21 01:52:07;;;;;;;7.95;1.92;;;;;;;23.91;58.36;100384.78;5077013;28;20409;-75
2023/09/21 01:55:05;;;;;;;5.07;1.70;;;;;;;23.91;58.51;100387.53;5066556;28;20516;-76
2023/09/21 01:57:57;;;;;;;6.57;2.03;;;;;;;23.98;58.31;100392.22;5058164;28;20413;-75
2023/09/21 02:00:49;;;;;;;6.72;1.70;;;;;;;24.01;58.31;100394.97;5072949;28;20044;-76
2023/09/21 02:03:44;;;;;;;5.55;1.88;;;;;;;24.00;58.41;100387.03;5060147;28;20055;-77
2023/09/21 02:06:39;;;;;;;7.25;2.10;;;;;;;23.99;58.42;100385.47;5075921;28;20051;-76
2023/09/21 02:09:31;;;;;;;;;;;;;;;23.80;57.76;100384.88;5075288;28;20059;-76
2023/09/21 02:12:26;;;;;;;5.10;2.40;;;;;;;23.72;58.77;100380.59;5073092;28;19912;-76
2023/09/21 02:15:20;;;;;;;12.63;2.60;;;;;;;23.63;58.31;100365.63;5076439;28;20055;-76
2023/09/21 02:18:15;;;;;;;4.85;1.85;;;;;;;23.38;59.80;100363.84;5057855;28;20039;-76
2023/09/21 02:21:09;;;;;;;3.35;1.55;;;;;;;23.36;59.63;100354.38;5077067;28;20405;-76
2023/09/21 02:24:04;;;;;;;4.47;2.28;;;;;;;23.52;59.56;100349.06;5074565;28;20055;-76
2023/09/21 02:26:58;;;;;;;2.67;1.50;;;;;;;23.27;59.23;100348.47;5071911;28;20047;-75
2023/09/21 02:29:53;;;;;;;20.98;4.85;;;;;;;23.03;60.64;100339.97;5071181;28;20044;-76
2023/09/21 02:32:51;;;;;;;4.97;1.85;;;;;;;23.29;60.22;100338.56;5073238;28;20075;-76
2023/09/21 02:35:47;;;;;;;4.80;2.00;;;;;;;23.42;59.67;100316.63;5070481;28;20528;-76
2023/09/21 02:38:41;;;;;;;4.85;1.77;;;;;;;23.48;59.75;100322.53;5075006;28;20051;-76
2023/09/21 02:41:36;;;;;;;4.38;1.45;;;;;;;23.41;59.27;100307.53;5057804;28;20115;-76
2023/09/21 02:44:28;;;;;;;;;;;;;;;23.24;60.05;100305.72;5075527;28;20051;-76
2023/09/21 02:47:23;;;;;;;3.13;1.23;;;;;;;23.44;59.62;100297.59;5072693;28;19916;-76
2023/09/21 02:50:17;;;;;;;4.50;1.05;;;;;;;23.60;59.23;100297.84;5070704;28;20398;-76
2023/09/21 02:53:11;;;;;;;14.18;2.03;;;;;;;23.67;58.89;100289.41;5074037;28;20397;-76
2023/09/21 02:56:08;;;;;;;2.72;1.48;;;;;;;23.63;58.60;100283.13;5071414;28;20520;-75
2023/09/21 02:59:00;;;;;;;3.45;1.40;;;;;;;23.53;58.41;100272.13;5061242;28;20048;-75
2023/09/21 03:01:54;;;;;;;3.40;1.13;;;;;;;23.63;58.30;100274.00;5073050;28;20059;-76
2023/09/21 03:04:46;;;;;;;3.92;1.17;;;;;;;23.66;57.63;100271.19;5069932;28;20048;-76
2023/09/21 03:07:41;;;;;;;2.40;1.20;;;;;;;23.69;57.41;100278.69;5072659;28;20136;-76
2023/09/21 03:10:35;;;;;;;8.95;0.90;;;;;;;23.50;56.65;100276.53;5057964;28;20400;-76
2023/09/21 03:13:30;;;;;;;4.65;1.20;;;;;;;23.38;57.35;100282.56;5061419;28;20048;-76
2023/09/21 03:16:24;;;;;;;2.35;0.98;;;;;;;23.52;57.66;100276.91;5058738;28;20051;-76
2023/09/21 03:19:20;;;;;;;2.20;0.80;;;;;;;23.47;57.40;100280.13;5070400;28;20055;-76
2023/09/21 03:22:15;;;;;;;18.40;1.13;;;;;;;23.53;57.71;100278.47;5065475;28;20043;-76
2023/09/21 03:25:12;;;;;;;3.05;0.70;;;;;;;23.58;57.34;100272.47;5050998;28;20048;-76
2023/09/21 03:28:14;;;;;;;3.65;0.90;;;;;;;23.60;56.85;100264.53;5051315;28;20124;-76
2023/09/21 03:31:06;;;;;;;1.90;0.77;;;;;;;23.59;57.17;100257.38;5053581;28;20044;-75
2023/09/21 03:34:02;;;;;;;4.75;0.90;;;;;;;23.61;56.91;100255.00;5050636;28;20052;-76
2023/09/21 03:36:57;;;;;;;6.50;0.90;;;;;;;23.62;56.51;100253.78;5053387;28;20520;-78
2023/09/21 03:39:52;;;;;;;2.83;1.23;;;;;;;23.59;56.22;100245.50;5051532;28;20417;-75
2023/09/21 03:42:46;;;;;;;1.90;1.15;;;;;;;23.05;57.18;100245.28;5056869;28;20072;-76
2023/09/21 03:45:41;;;;;;;13.38;1.30;;;;;;;22.84;57.69;100257.34;5050978;28;20060;-76
2023/09/21 03:48:35;;;;;;;8.05;1.40;;;;;;;22.93;57.71;100254.88;5051001;28;20044;-76
2023/09/21 03:51:31;;;;;;;6.93;1.80;;;;;;;22.78;58.55;100250.66;5053742;28;20044;-76
2023/09/21 03:54:25;;;;;;;3.83;1.02;;;;;;;23.09;58.40;100246.00;5056626;28;20048;-76
2023/09/21 03:57:20;;;;;;;2.50;0.95;;;;;;;23.33;57.48;100241.41;5053244;28;20068;-77
2023/09/21 04:00:25;;;;;;;2.75;0.93;;;;;;;23.42;56.99;100227.81;5051187;28;20052;-77
2023/09/21 04:03:19;;;;;;;4.47;1.45;;;;;;;23.44;56.74;100233.75;5063839;28;20527;-76
2023/09/21 04:06:23;;;;;;;3.03;1.20;;;;;;;23.47;56.68;100240.50;5058317;28;20048;-76
2023/09/21 04:09:17;;;;;;;10.07;1.58;;;;;;;23.29;56.61;100243.44;5070083;28;20056;-76
2023/09/21 04:12:12;;;;;;;6.95;1.02;;;;;;;23.29;57.16;100240.66;5053487;28;20142;-77
2023/09/21 04:15:06;;;;;;;7.05;1.40;;;;;;;23.39;57.11;100256.41;5057345;28;20044;-77
2023/09/21 04:18:01;;;;;;;8.38;1.20;;;;;;;23.44;56.82;100255.94;5066583;28;20051;-77
2023/09/21 04:20:56;;;;;;;6.43;1.30;;;;;;;23.47;57.12;100244.03;5068522;28;20055;-76
2023/09/21 04:23:51;;;;;;;2.55;1.05;;;;;;;23.49;56.65;100238.88;5068329;28;20048;-78
2023/09/21 04:26:45;;;;;;;3.70;1.77;;;;;;;23.15;57.37;100238.81;5073453;28;20047;-76
2023/09/21 04:29:37;;;;;;;;;;;;;;;23.36;57.36;100240.59;5067089;28;20067;-77
2023/09/21 04:32:32;;;;;;;8.20;2.22;;;;;;;23.41;57.41;100237.34;5075200;28;19917;-76
2023/09/21 04:35:27;;;;;;;4.45;1.15;;;;;;;23.43;57.06;100229.38;5069947;28;20405;-76
2023/09/21 04:38:22;;;;;;;8.82;1.55;;;;;;;23.46;56.74;100225.84;5059789;28;20772;-76
2023/09/21 04:41:21;;;;;;;4.95;1.13;;;;;;;23.48;57.14;100234.53;5064100;28;20067;-76
2023/09/21 04:44:15;;;;;;;6.68;1.65;;;;;;;23.20;56.40;100237.59;5074614;28;20051;-75
2023/09/21 04:47:10;;;;;;;6.28;1.63;;;;;;;22.67;58.54;100230.53;5077285;28;20051;-76
2023/09/21 04:50:04;;;;;;;4.93;0.98;;;;;;;22.29;60.72;100228.84;5073909;28;20040;-77
2023/09/21 04:52:59;;;;;;;11.57;2.30;;;;;;;21.73;62.13;100236.25;5073954;28;20055;-75
2023/09/21 04:55:51;;;;;;;5.00;2.05;;;;;;;21.63;62.25;100234.31;5064023;28;20532;-75
2023/09/21 04:58:45;;;;;;;5.15;1.38;;;;;;;21.25;63.18;100230.47;5069227;28;20051;-76
2023/09/21 05:01:40;;;;;;;1.80;1.33;;;;;;;20.86;63.58;100225.78;5074608;28;20082;-76
2023/09/21 05:04:35;;;;;;;7.20;1.70;;;;;;;21.06;63.51;100228.91;5068850;28;20052;-76
2023/09/21 05:07:29;;;;;;;5.88;1.50;;;;;;;21.06;64.08;100231.69;5073779;28;20047;-77
2023/09/21 05:10:24;;;;;;;5.95;1.50;;;;;;;20.78;66.04;100206.81;5073195;28;20051;-77
2023/09/21 05:13:18;;;;;;;8.02;1.48;;;;;;;20.71;67.23;100234.50;5073503;28;20039;-76
2023/09/21 05:16:13;;;;;;;6.93;1.65;;;;;;;20.70;65.94;100225.41;5069846;28;20516;-77
2023/09/21 05:19:07;;;;;;;9.75;2.00;;;;;;;21.13;64.33;100217.81;5068139;28;20056;-77
2023/09/21 05:22:07;;;;;;;10.98;1.67;;;;;;;21.13;64.25;100217.81;5074365;28;20039;-76
2023/09/21 05:25:02;;;;;;;4.88;1.83;;;;;;;21.17;63.75;100224.19;5062196;28;20037;-77
2023/09/21 05:27:54;;;;;;;;;;;;;;;21.28;64.04;100224.16;5068555;28;20043;-76
2023/09/21 05:30:52;;;;;;;7.90;2.00;;;;;;;21.32;64.26;100222.97;5071797;28;19916;-77
2023/09/21 05:33:46;;;;;;;7.35;1.52;;;;;;;21.69;63.59;100230.72;5071862;28;20055;-77
2023/09/21 05:36:41;;;;;;;11.68;2.33;;;;;;;21.06;63.66;100239.19;5073085;28;20072;-76
2023/09/21 05:39:35;;;;;;;11.70;2.67;;;;;;;20.85;65.10;100245.53;5077888;28;20052;-77
2023/09/21 05:42:30;;;;;;;4.60;1.73;;;;;;;21.12;66.36;100243.94;5074534;28;20043;-77
2023/09/21 05:45:22;;;;;;;5.55;1.45;;;;;;;21.41;62.95;100238.34;5078525;28;20039;-76
2023/09/21 05:48:17;;;;;;;6.00;1.73;;;;;;;21.05;65.53;100243.94;5072710;28;20044;-77
2023/09/21 05:51:12;;;;;;;19.38;2.47;;;;;;;21.20;64.25;100237.22;5074319;28;20051;-77
2023/09/21 05:54:02;;;;;;;9.52;1.30;;;;;;;21.45;64.23;100233.56;5062453;28;20044;-76
2023/09/21 05:57:03;;;;;;;11.07;1.77;;;;;;;21.90;63.07;100235.38;5068751;28;20043;-77
2023/09/21 05:59:57;;;;;;;2.97;1.30;;;;;;;21.81;62.63;100237.78;5066745;28;20039;-77
2023/09/21 06:02:52;;;;;;;4.57;1.90;;;;;;;21.82;62.73;100239.38;5066821;28;20043;-76
2023/09/21 06:05:47;;;;;;;3.28;1.63;;;;;;;21.53;62.12;100240.69;5063095;28;20043;-77
2023/09/21 06:08:41;;;;;;;10.73;2.45;;;;;;;20.67;66.55;100253.81;5066036;28;20047;-78
2023/09/21 06:11:37;;;;;;;19.65;2.47;;;;;;;20.54;67.17;100240.78;5067614;28;20036;-76
2023/09/21 06:14:31;;;;;;;9.98;2.28;;;;;;;19.81;71.61;100238.25;5071637;28;20035;-77
2023/09/21 06:17:26;;;;;;;13.82;2.40;;;;;;;19.74;71.99;100235.47;5067336;28;20523;-76
2023/09/21 06:20:21;;;;;;;15.25;2.22;;;;;;;19.92;71.28;100249.31;5065090;28;20413;-75
2023/09/21 06:23:17;;;;;;;8.07;2.65;;;;;;;19.53;71.97;100249.97;5068997;28;20044;-77
2023/09/21 06:26:11;;;;;;;7.53;3.15;;;;;;;19.28;73.26;100249.00;5063817;28;20346;-76
2023/09/21 06:29:04;;;;;;;;;;;;;;;19.33;73.60;100259.69;5069254;28;20433;-76
2023/09/21 06:31:58;;;;;;;16.23;3.30;;;;;;;19.30;73.94;100256.91;5063365;28;19913;-76
2023/09/21 06:34:55;;;;;;;11.50;3.38;;;;;;;19.50;72.90;100255.47;5064007;28;20044;-77
2023/09/21 06:37:50;;;;;;;14.82;3.97;;;;;;;19.51;72.85;100246.78;5065617;28;20659;-76
2023/09/21 06:40:45;;;;;;;15.13;2.72;;;;;;;19.97;71.10;100248.94;5062011;28;20039;-76
2023/09/21 06:43:43;;;;;;;8.38;2.92;;;;;;;20.41;69.54;100232.13;5068604;28;20047;-77
2023/09/21 06:46:35;;;;;;;10.13;3.10;;;;;;;20.48;68.59;100243.16;5067490;28;20039;-77
2023/09/21 06:49:30;;;;;;;11.65;3.03;;;;;;;20.92;68.83;100242.78;5072084;28;20047;-78
2023/09/21 06:52:24;;;;;;;12.02;3.00;;;;;;;20.97;68.43;100250.66;5074749;28;20047;-77
2023/09/21 06:55:19;;;;;;;11.30;4.35;;;;;;;20.20;68.97;100249.41;5076995;28;20044;-78
2023/09/21 06:58:14;;;;;;;7.28;2.80;;;;;;;20.79;68.68;100252.63;5071283;28;20047;-81
2023/09/21 07:01:13;;;;;;;14.57;2.97;;;;;;;21.00;67.81;100258.16;5077250;28;20578;-80
2023/09/21 07:04:08;;;;;;;15.23;3.67;;;;;;;21.53;67.17;100260.84;5071638;28;20044;-81
2023/09/21 07:07:00;;;;;;;13.90;3.65;;;;;;;21.87;65.22;100263.88;5064399;28;20052;-79
2023/09/21 07:09:54;;;;;;;15.82;3.25;;;;;;;21.87;64.91;100271.38;5066536;28;20410;-77
2023/09/21 07:12:49;;;;;;;13.63;3.95;;;;;;;20.96;68.72;100273.16;5065556;28;20416;-77
2023/09/21 07:15:43;;;;;;;7.55;3.47;;;;;;;19.87;73.14;100269.81;5068485;28;20036;-76
2023/09/21 07:18:35;;;;;;;7.70;3.42;;;;;;;20.77;70.88;100261.34;5069687;28;20051;-78
2023/09/21 07:21:28;;;;;;;14.88;4.10;;;;;;;21.30;68.94;100255.75;5060019;28;20048;-77
2023/09/21 07:24:23;;;;;;;14.88;3.50;;;;;;;21.71;67.44;100260.75;5068565;28;20055;-77
2023/09/21 07:27:17;;;;;;;10.65;3.05;;;;;;;21.94;66.27;100250.00;5058351;28;20703;-77
2023/09/21 07:30:13;;;;;;;8.95;3.22;;;;;;;22.02;66.01;100250.75;5063259;28;20044;-76
2023/09/21 07:33:08;;;;;;;11.55;3.42;;;;;;;22.08;66.11;100252.72;5061837;28;20048;-77
2023/09/21 07:36:02;;;;;;;11.85;2.80;;;;;;;22.30;65.18;100247.06;5065065;28;20533;-76
2023/09/21 07:38:57;;;;;;;9.05;2.72;;;;;;;22.37;64.90;100238.66;5070546;28;20052;-77
2023/09/21 07:41:51;;;;;;;8.52;2.40;;;;;;;22.47;63.94;100243.34;5071675;28;20413;-76
2023/09/21 07:44:46;;;;;;;8.73;2.72;;;;;;;22.64;63.77;100242.44;5065723;28;20043;-77
2023/09/21 07:47:40;;;;;;;25.17;2.53;;;;;;;22.80;63.02;100239.97;5057903;28;20068;-79
2023/09/21 07:50:35;;;;;;;12.30;2.67;;;;;;;22.95;63.08;100249.72;5062590;28;20056;-78
2023/09/21 07:53:29;;;;;;;17.08;3.40;;;;;;;23.28;61.98;100253.75;5065184;28;20047;-78
2023/09/21 07:56:21;;;;;;;9.85;1.70;;;;;;;22.44;65.28;100255.25;5056768;28;20048;-78
2023/09/21 07:59:16;;;;;;;5.95;1.92;;;;;;;21.22;71.21;100268.03;5064668;28;20047;-78
2023/09/21 08:02:11;;;;;;;14.38;3.55;;;;;;;21.92;69.39;100266.22;5063680;28;20768;-77
2023/09/21 08:05:05;;;;;;;13.00;3.10;;;;;;;21.58;69.17;100265.97;5068121;28;20043;-78
2023/09/21 08:08:00;;;;;;;11.65;3.28;;;;;;;20.85;74.45;100268.44;5062134;28;20055;-76
2023/09/21 08:10:54;;;;;;;11.30;3.75;;;;;;;21.47;71.68;100267.19;5064740;28;20052;-77
2023/09/21 08:13:49;;;;;;;11.27;3.13;;;;;;;21.29;71.68;100272.75;5068572;28;20047;-77
2023/09/21 08:16:44;;;;;;;12.25;4.07;;;;;;;21.52;70.63;100270.34;5066811;28;20043;-76
2023/09/21 08:19:39;;;;;;;14.05;2.80;;;;;;;21.71;70.13;100269.84;5070495;28;20802;-76
2023/09/21 08:22:33;;;;;;;9.65;2.80;;;;;;;21.96;69.60;100277.28;5065521;28;20048;-77
2023/09/21 08:25:28;;;;;;;34.97;5.93;;;;;;;22.08;68.25;100269.34;5066957;28;20063;-76
2023/09/21 08:28:20;;;;;;;37.92;8.45;;;;;;;22.22;68.39;100276.75;5073957;28;20153;-76
2023/09/21 08:31:15;;;;;;;12.27;4.30;;;;;;;22.34;68.27;100275.50;5075881;28;20047;-75
2023/09/21 08:34:10;;;;;;;20.08;5.32;;;;;;;22.49;68.51;100275.03;5079448;28;20048;-81
2023/09/21 08:37:04;;;;;;;14.30;3.90;;;;;;;23.01;64.43;100278.56;5070286;28;20355;-81
2023/09/21 08:39:59;;;;;;;7.25;2.25;;;;;;;23.24;62.37;100269.66;5075280;28;20047;-80
2023/09/21 08:42:57;;;;;;;7.50;2.47;;;;;;;23.36;61.89;100266.34;5077727;28;20048;-80
2023/09/21 08:45:53;;;;;;;7.88;2.35;;;;;;;23.36;61.14;100273.88;5075621;28;20044;-80
2023/09/21 08:48:44;;;;;;;5.65;2.13;;;;;;;23.49;62.10;100280.50;5079717;28;20039;-80
2023/09/21 08:51:39;;;;;;;21.98;3.55;;;;;;;23.49;62.02;100279.72;5076283;28;20043;-81
2023/09/21 08:54:32;;;;;;;7.07;2.83;;;;;;;23.53;61.90;100286.81;5073907;28;20051;-80
2023/09/21 08:57:26;;;;;;;13.00;4.10;;;;;;;23.60;61.97;100272.84;5075936;28;20047;-80
2023/09/21 09:00:22;;;;;;;9.27;2.92;;;;;;;23.11;65.01;100271.34;5074861;28;20063;-80
2023/09/21 09:03:17;;;;;;;8.55;3.20;;;;;;;23.32;64.77;100262.03;5077465;28;20044;-80
2023/09/21 09:06:11;;;;;;;13.13;2.58;;;;;;;23.47;64.18;100257.91;5075387;28;20044;-79
2023/09/21 09:09:06;;;;;;;5.68;2.50;;;;;;;23.44;63.92;100262.28;5073850;28;20047;-81
2023/09/21 09:12:02;;;;;;;16.45;2.63;;;;;;;23.23;65.28;100262.50;5077368;28;20043;-80
2023/09/21 09:14:55;;;;;;;10.20;2.90;;;;;;;23.31;64.05;100263.25;5074438;28;20596;-80
2023/09/21 09:17:49;;;;;;;16.42;3.15;;;;;;;23.60;62.40;100258.97;5072446;28;20043;-79
2023/09/21 09:20:48;;;;;;;12.98;3.63;;;;;;;23.76;61.44;100261.16;5075626;28;20043;-81
2023/09/21 09:23:44;;;;;;;14.23;2.63;;;;;;;23.98;61.19;100254.13;5073783;28;20039;-81
2023/09/21 09:26:38;;;;;;;7.47;2.58;;;;;;;24.76;57.94;100249.41;5076345;28;20073;-81
2023/09/21 09:29:33;;;;;;;7.72;2.63;;;;;;;25.18;55.90;100247.91;5074616;28;20116;-82
2023/09/21 09:32:35;;;;;;;12.77;2.38;;;;;;;25.52;55.60;100248.44;5078834;28;20051;-81
2023/09/21 09:35:29;;;;;;;13.85;2.40;;;;;;;26.47;52.11;100248.38;5074928;28;20035;-82
2023/09/21 09:38:22;;;;;;;6.88;2.60;;;;;;;26.87;50.87;100243.44;5067680;28;20048;-81
2023/09/21 09:41:16;;;;;;;9.73;2.53;;;;;;;26.72;50.93;100234.59;5057252;28;20571;-82
2023/09/21 09:44:13;;;;;;;10.70;2.45;;;;;;;27.11;50.48;100221.69;5061811;28;20048;-81
2023/09/21 09:47:12;;;;;;;11.40;2.50;;;;;;;27.08;48.43;100222.53;5075316;28;20036;-80
2023/09/21 09:50:05;;;;;;;9.25;2.50;;;;;;;26.97;48.64;100222.81;5073262;28;20044;-81
2023/09/21 09:53:10;;;;;;;10.10;2.03;;;;;;;26.76;49.49;100215.00;5069424;28;20063;-83
2023/09/21 09:56:08;;;;;;;10.27;2.78;;;;;;;30.56;42.38;100235.63;5057085;28;20040;-82
2023/09/21 09:59:02;;;;;;;7.85;2.20;;;;;;;34.07;33.54;100220.66;5071345;28;20055;-82
2023/09/21 10:01:58;;;;;;;7.85;2.92;;;;;;;32.75;35.61;100224.06;5068941;28;20084;-81
2023/09/21 10:04:58;;;;;;;11.25;2.05;;;;;;;31.89;35.71;100209.72;5058484;28;20044;-84
2023/09/21 10:07:53;;;;;;;14.48;2.60;;;;;;;35.09;30.54;100217.50;5060973;28;20051;-83
2023/09/21 10:10:52;;;;;;;10.15;1.83;;;;;;;34.85;30.69;100216.16;5062073;28;20069;-84
2023/09/21 10:13:56;;;;;;;17.58;2.90;;;;;;;35.20;29.89;100219.72;5055662;28;20059;-83
2023/09/21 10:16:58;;;;;;;8.18;2.50;;;;;;;34.56;32.77;100215.00;5068813;28;20032;-82
2023/09/21 10:20:10;;;;;;;12.13;3.08;;;;;;;31.27;37.05;100204.50;5068761;28;20512;-83
2023/09/21 10:23:06;;;;;;;6.72;1.73;;;;;;;28.48;41.09;100202.03;5079684;28;20112;-82
2023/09/21 10:26:02;;;;;;;8.40;2.00;;;;;;;29.95;39.32;100193.59;5074443;28;20047;-83
2023/09/21 10:28:56;;;;;;;14.55;2.33;;;;;;;31.39;35.13;100200.72;5072878;28;20040;-83
2023/09/21 10:32:03;;;;;;;6.72;1.90;;;;;;;28.81;41.88;100192.13;5068537;28;20513;-82
2023/09/21 10:34:55;;;;;;;20.08;2.22;;;;;;;32.93;33.83;100197.75;5074030;28;20036;-85
2023/09/21 10:37:54;;;;;;;4.03;1.92;;;;;;;40.70;23.17;100209.66;5060283;28;20043;-84
2023/09/21 10:40:50;;;;;;;9.82;2.42;;;;;;;43.37;19.34;100204.25;5070692;28;20060;-84
2023/09/21 10:43:46;;;;;;;7.05;1.98;;;;;;;38.65;24.24;100200.56;5056684;28;20051;-82
2023/09/21 10:46:43;;;;;;;10.55;3.05;;;;;;;34.10;30.89;100185.78;5052631;28;20040;-84
2023/09/21 10:49:36;;;;;;;8.25;2.30;;;;;;;38.34;26.01;100184.63;5082786;28;20055;-83
2023/09/21 10:52:30;;;;;;;7.20;2.00;;;;;;;42.74;19.69;100180.41;5069623;28;20035;-82
2023/09/21 10:55:25;;;;;;;6.20;2.08;;;;;;;37.61;25.40;100170.47;5052967;28;20040;-82
2023/09/21 10:58:21;;;;;;;11.27;2.33;;;;;;;37.53;26.18;100169.41;5069495;28;20043;-82
2023/09/21 11:01:21;;;;;;;8.75;3.22;;;;;;;37.28;26.46;100162.66;5059588;28;20056;-83
2023/09/21 11:04:16;;;;;;;11.77;2.78;;;;;;;30.89;36.38;100145.97;5075473;28;20040;-83
2023/09/21 11:07:11;;;;;;;6.82;2.20;;;;;;;34.15;30.54;100137.13;5070946;28;20039;-81
2023/09/21 11:10:06;;;;;;;13.25;2.80;;;;;;;28.70;42.07;100124.50;5061863;28;20520;-88
2023/09/21 11:13:00;;;;;;;9.40;2.80;;;;;;;27.91;44.25;100124.78;5063064;28;20043;-82
2023/09/21 11:15:52;;;;;;;10.68;2.88;;;;;;;28.10;44.00;100132.13;5059938;28;20059;-83
2023/09/21 11:18:46;;;;;;;13.23;2.88;;;;;;;31.11;37.81;100131.78;5065904;28;20044;-85
2023/09/21 11:21:40;;;;;;;15.07;4.45;;;;;;;29.00;41.15;100131.50;5073573;28;20039;-84
2023/09/21 11:24:38;;;;;;;11.07;2.25;;;;;;;28.69;42.19;100120.19;5069428;28;20043;-82
2023/09/21 11:27:32;;;;;;;16.92;3.38;;;;;;;30.05;39.05;100113.88;5065746;28;20676;-84
2023/09/21 11:30:29;;;;;;;5.57;2.33;;;;;;;28.57;43.25;100103.41;5073033;28;20071;-82
2023/09/21 11:33:27;;;;;;;7.18;2.30;;;;;;;32.59;35.59;100106.16;5067622;28;20043;-83
2023/09/21 11:36:22;;;;;;;4.53;2.22;;;;;;;37.37;27.43;100121.94;5064663;28;20044;-82
2023/09/21 11:39:14;;;;;;;9.85;1.80;;;;;;;36.85;27.76;100118.72;5066656;28;20043;-83
2023/09/21 11:42:09;;;;;;;11.40;2.65;;;;;;;35.07;29.99;100114.66;5057890;28;20040;-82
2023/09/21 11:45:02;;;;;;;13.43;2.05;;;;;;;36.30;28.12;100110.78;5060927;28;20040;-83
2023/09/21 11:47:55;;;;;;;;;;;;;;;36.00;28.04;100113.16;5052976;28;20044;-83
2023/09/21 11:50:48;;;;;;;9.38;2.13;;;;;;;38.54;25.30;100113.25;5060429;28;19917;-84
2023/09/21 11:53:43;;;;;;;5.13;1.73;;;;;;;34.98;29.87;100112.78;5060442;28;20040;-83
2023/09/21 11:56:40;;;;;;;9.45;1.95;;;;;;;34.41;30.85;100098.47;5062841;28;20402;-85
2023/09/21 11:59:30;;;;;;;15.35;2.25;;;;;;;42.71;20.44;100104.28;5073086;28;20039;-84
2023/09/21 12:02:22;;;;;;;7.97;1.75;;;;;;;43.52;19.35;100101.31;5076165;28;20047;-83
2023/09/21 12:05:16;;;;;;;7.90;1.80;;;;;;;48.33;14.63;100107.44;5063761;28;20055;-84
2023/09/21 12:08:10;;;;;;;7.60;1.63;;;;;;;48.79;14.47;100104.75;5064389;28;20039;-85
2023/09/21 12:11:08;;;;;;;21.02;2.20;;;;;;;49.64;13.20;100100.75;5073623;28;20682;-86
2023/09/21 12:14:04;;;;;;;6.22;1.98;;;;;;;36.50;25.98;100067.34;5068048;28;20044;-84
2023/09/21 12:16:56;;;;;;;7.20;1.92;;;;;;;37.10;25.83;100063.91;5063138;28;20048;-87
2023/09/21 12:19:52;;;;;;;11.77;1.63;;;;;;;39.53;22.97;100062.69;5058722;28;20052;-82
2023/09/21 12:22:48;;;;;;;5.82;1.65;;;;;;;39.24;23.33;100066.28;5077416;28;20052;-83
2023/09/21 12:25:43;;;;;;;8.35;2.35;;;;;;;34.90;28.65;100048.69;5072191;28;20537;-84
2023/09/21 12:28:35;;;;;;;8.32;2.45;;;;;;;30.19;36.07;100045.94;5053240;28;20052;-84
2023/09/21 12:31:27;;;;;;;8.80;2.20;;;;;;;28.20;40.57;100043.56;5059253;28;20421;-83
2023/09/21 12:34:19;;;;;;;10.45;2.30;;;;;;;28.50;40.34;100048.47;5076821;28;20468;-82
2023/09/21 12:37:14;;;;;;;8.63;2.08;;;;;;;30.95;35.26;100039.38;5072031;28;20035;-84
2023/09/21 12:40:11;;;;;;;7.78;2.03;;;;;;;36.18;27.63;100041.97;5081126;28;20048;-86
2023/09/21 12:43:00;;;;;;;6.95;2.20;;;;;;;40.90;21.93;100057.94;5076486;28;20039;-85
2023/09/21 12:45:55;;;;;;;7.85;2.10;;;;;;;38.82;23.79;100050.53;5060623;28;20048;-85
2023/09/21 12:48:50;;;;;;;5.20;1.92;;;;;;;38.40;24.10;100054.66;5080851;28;20036;-84
2023/09/21 12:51:44;;;;;;;10.45;2.05;;;;;;;38.23;24.63;100042.59;5080990;28;20067;-84
2023/09/21 12:54:39;;;;;;;14.90;2.72;;;;;;;36.48;26.36;100038.72;5058853;28;20048;-84
2023/09/21 12:57:34;;;;;;;7.10;1.92;;;;;;;37.93;24.29;100042.41;5075661;28;20519;-85
2023/09/21 13:00:28;;;;;;;9.63;1.83;;;;;;;34.63;29.10;100025.31;5080847;28;20061;-86
2023/09/21 13:03:20;;;;;;;16.13;2.13;;;;;;;34.37;29.88;100024.50;5077954;28;20067;-85
2023/09/21 13:06:14;;;;;;;7.00;2.03;;;;;;;35.28;28.38;100017.22;5079021;28;20040;-84
2023/09/21 13:09:07;;;;;;;9.45;2.50;;;;;;;34.46;28.87;100018.69;5079938;28;20043;-84
2023/09/21 13:12:01;;;;;;;7.78;1.60;;;;;;;33.02;31.66;100018.13;5075168;28;20063;-84
2023/09/21 13:14:54;;;;;;;10.20;3.17;;;;;;;37.28;25.08;100010.78;5074086;28;20511;-84
2023/09/21 13:17:46;;;;;;;7.68;2.05;;;;;;;36.93;25.35;100014.88;5075454;28;20059;-84
2023/09/21 13:20:40;;;;;;;7.10;1.55;;;;;;;37.26;25.06;100017.75;5059244;28;20040;-85
2023/09/21 13:23:37;;;;;;;8.43;1.80;;;;;;;37.01;25.74;100010.25;5081457;28;20036;-86
2023/09/21 13:26:31;;;;;;;4.32;1.88;;;;;;;37.63;24.36;100011.03;5078590;28;20059;-86
2023/09/21 13:29:26;;;;;;;9.13;2.22;;;;;;;38.34;23.87;100006.38;5080523;28;20063;-83
2023/09/21 13:32:24;;;;;;;6.32;1.80;;;;;;;37.84;23.71;100003.75;5080473;28;20051;-85